Time;durP1;ratioP1;P1;durP2;ratioP2;P2;SDS_P1;SDS_P2;PMS_P1;PMS_P2;Temp;Humidity;BMP_temperature;BMP_pressure;BME280_temperature;BME280_humidity;BME280_pressure;Samples;Min_cycle;Max_cycle;Signal;HPM_P1;HPM_P2
2021/06/15 00:01:12;;;;;;;7.70;4.10;;;21.70;1.00;;;;;;5117458;28;20541;-68
2021/06/15 00:03:38;;;;;;;6.40;4.20;;;21.70;1.00;;;;;;5117085;28;20452;-68
2021/06/15 00:06:06;;;;;;;6.63;3.73;;;21.70;1.00;;;;;;5117497;28;20804;-69
2021/06/15 00:08:32;;;;;;;6.67;3.80;;;21.70;1.00;;;;;;5117333;28;20917;-69
2021/06/15 00:10:59;;;;;;;4.17;3.77;;;21.60;1.00;;;;;;5117006;28;20455;-69
2021/06/15 00:13:26;;;;;;;8.10;3.43;;;21.60;1.00;;;;;;5116984;28;20456;-69
2021/06/15 00:15:53;;;;;;;4.47;4.03;;;21.70;1.00;;;;;;5117368;28;20479;-69
2021/06/15 00:18:21;;;;;;;4.20;3.80;;;21.60;1.00;;;;;;5117404;28;20772;-69
2021/06/15 00:20:50;;;;;;;5.30;3.57;;;21.60;1.00;;;;;;5117048;28;20758;-69
2021/06/15 00:23:17;;;;;;;6.37;4.00;;;21.50;1.00;;;;;;5117246;28;20475;-69
2021/06/15 00:25:46;;;;;;;5.60;3.83;;;21.50;1.00;;;;;;5117289;28;20452;-69
2021/06/15 00:28:13;;;;;;;5.83;3.90;;;21.50;1.00;;;;;;5117160;28;20476;-69
2021/06/15 00:30:40;;;;;;;6.80;4.20;;;21.50;1.00;;;;;;5117224;28;20452;-69
2021/06/15 00:33:07;;;;;;;4.40;3.60;;;21.50;1.00;;;;;;5117250;28;20827;-69
2021/06/15 00:35:35;;;;;;;8.90;4.07;;;21.50;1.00;;;;;;5116771;27;20927;-69
2021/06/15 00:38:02;;;;;;;6.20;4.10;;;21.40;1.00;;;;;;5117010;28;20463;-69
2021/06/15 00:40:28;;;;;;;6.07;3.70;;;21.40;1.00;;;;;;5116761;28;20460;-69
2021/06/15 00:42:55;;;;;;;5.80;3.80;;;21.40;1.00;;;;;;5116553;28;20477;-69
2021/06/15 00:45:27;;;;;;;4.73;3.80;;;21.30;1.00;;;;;;5116735;28;20567;-69
2021/06/15 00:47:55;;;;;;;5.27;4.20;;;21.30;1.00;;;;;;5116271;28;20476;-69
2021/06/15 00:50:23;;;;;;;5.20;3.50;;;21.30;1.00;;;;;;5116510;28;20528;-68
2021/06/15 00:52:53;;;;;;;8.90;4.47;;;21.30;1.00;;;;;;5116557;28;20460;-69
2021/06/15 00:55:20;;;;;;;4.63;3.70;;;21.30;1.00;;;;;;5116295;28;20453;-68
2021/06/15 00:57:47;;;;;;;4.03;3.73;;;21.20;1.00;;;;;;5116021;28;20932;-69
2021/06/15 01:00:14;;;;;;;6.00;3.80;;;21.20;1.00;;;;;;5116555;28;20460;-68
2021/06/15 01:02:41;;;;;;;11.43;4.87;;;21.10;1.00;;;;;;5116145;28;20775;-69
2021/06/15 01:05:10;;;;;;;5.17;4.33;;;21.10;1.00;;;;;;5116140;28;20467;-68
2021/06/15 01:07:45;;;;;;;4.83;3.93;;;21.10;1.00;;;;;;5116424;28;20463;-69
2021/06/15 01:10:22;;;;;;;6.87;3.50;;;21.10;1.00;;;;;;5116603;28;20436;-69
2021/06/15 01:12:58;;;;;;;5.93;3.50;;;21.10;1.00;;;;;;5116086;28;20440;-69
2021/06/15 01:15:29;;;;;;;7.13;4.27;;;21.00;1.00;;;;;;5116390;28;20436;-69
2021/06/15 01:18:00;;;;;;;4.40;4.00;;;21.00;1.00;;;;;;5116053;28;20445;-69
2021/06/15 01:20:28;;;;;;;4.90;3.80;;;21.00;1.00;;;;;;5116073;28;20873;-69
2021/06/15 01:23:11;;;;;;;11.23;4.57;;;21.00;1.00;;;;;;5115805;28;20476;-69
2021/06/15 01:25:58;;;;;;;6.53;4.23;;;20.90;1.00;;;;;;5115113;28;20892;-69
2021/06/15 01:28:31;;;;;;;5.20;4.33;;;20.90;1.00;;;;;;5115717;28;20445;-69
2021/06/15 01:31:10;;;;;;;4.53;4.13;;;20.90;1.00;;;;;;5116261;28;20897;-69
2021/06/15 01:33:41;;;;;;;4.17;3.60;;;20.80;1.00;;;;;;5116208;28;20447;-69
2021/06/15 01:36:11;;;;;;;5.03;3.63;;;20.80;1.00;;;;;;5115467;28;20441;-68
2021/06/15 01:38:43;;;;;;;8.73;3.63;;;20.80;1.00;;;;;;5115718;28;20516;-69
2021/06/15 01:41:12;;;;;;;6.17;4.10;;;20.80;1.00;;;;;;5115686;28;20447;-69
2021/06/15 01:43:43;;;;;;;8.00;4.60;;;20.80;1.00;;;;;;5115516;28;20460;-69
2021/06/15 01:46:13;;;;;;;4.90;4.20;;;20.80;1.00;;;;;;5115221;28;20480;-69
2021/06/15 01:48:46;;;;;;;8.17;4.60;;;20.80;1.00;;;;;;5116029;28;20745;-69
2021/06/15 01:51:14;;;;;;;5.20;3.87;;;20.70;1.00;;;;;;5115529;28;20516;-69
2021/06/15 01:53:46;;;;;;;5.37;4.27;;;20.70;1.00;;;;;;5115359;28;20479;-69
2021/06/15 01:56:16;;;;;;;5.10;4.00;;;20.70;1.00;;;;;;5115447;28;20437;-69
2021/06/15 01:58:47;;;;;;;4.93;3.77;;;20.60;1.00;;;;;;5115502;28;20445;-69
2021/06/15 02:01:17;;;;;;;8.40;6.60;;;20.60;1.00;;;;;;5115255;28;20437;-69
2021/06/15 02:03:46;;;;;;;8.80;5.80;;;20.60;1.00;;;;;;5115594;28;20452;-69
2021/06/15 02:06:13;;;;;;;7.10;5.00;;;20.60;1.00;;;;;;5114800;28;20463;-69
2021/06/15 02:08:45;;;;;;;6.00;4.60;;;20.60;1.00;;;;;;5115351;28;20456;-69
2021/06/15 02:11:13;;;;;;;4.50;4.10;;;20.50;1.00;;;;;;5115736;28;20451;-69
2021/06/15 02:13:46;;;;;;;4.47;3.37;;;20.50;1.00;;;;;;5115188;28;20452;-69
2021/06/15 02:16:15;;;;;;;5.70;4.67;;;20.50;1.00;;;;;;5115351;28;20476;-69
2021/06/15 02:18:46;;;;;;;4.90;3.80;;;20.50;1.00;;;;;;5115244;28;20456;-69
2021/06/15 02:21:16;;;;;;;7.90;3.90;;;20.40;1.00;;;;;;5114897;28;20486;-69
2021/06/15 02:23:46;;;;;;;5.80;4.00;;;20.40;1.00;;;;;;5114679;28;20479;-69
2021/06/15 02:26:16;;;;;;;6.53;4.00;;;20.40;1.00;;;;;;5115385;28;20437;-69
2021/06/15 02:28:43;;;;;;;4.40;4.00;;;20.40;1.00;;;;;;5115185;28;20463;-69
2021/06/15 02:31:17;;;;;;;6.07;4.10;;;20.30;1.00;;;;;;5115346;28;20789;-69
2021/06/15 02:33:48;;;;;;;7.23;4.57;;;20.30;1.00;;;;;;5115299;28;20444;-69
2021/06/15 02:36:20;;;;;;;5.50;4.10;;;20.30;1.00;;;;;;5115949;28;20768;-69
2021/06/15 02:38:55;;;;;;;6.60;4.17;;;20.20;1.00;;;;;;5118940;28;20991;-69
2021/06/15 02:41:24;;;;;;;6.23;4.20;;;20.20;1.00;;;;;;5118850;28;20890;-69
2021/06/15 02:43:57;;;;;;;4.90;4.10;;;20.20;1.00;;;;;;5119169;28;20782;-69
2021/06/15 02:46:27;;;;;;;5.10;4.03;;;20.20;1.00;;;;;;5118951;28;20817;-69
2021/06/15 02:48:58;;;;;;;4.47;3.80;;;20.20;1.00;;;;;;5119163;28;20448;-69
2021/06/15 02:51:29;;;;;;;6.30;4.30;;;20.20;1.00;;;;;;5118635;28;20916;-69
2021/06/15 02:54:05;;;;;;;5.70;4.20;;;20.10;1.00;;;;;;5118937;28;20444;-69
2021/06/15 02:56:35;;;;;;;6.83;4.10;;;20.10;1.00;;;;;;5118676;28;20474;-69
2021/06/15 02:59:02;;;;;;;5.27;4.13;;;20.10;1.00;;;;;;5119177;28;20440;-69
2021/06/15 03:01:31;;;;;;;7.13;4.33;;;20.10;1.00;;;;;;5119211;28;20790;-69
2021/06/15 03:03:57;;;;;;;5.83;4.20;;;20.10;1.00;;;;;;5119050;28;20456;-69
2021/06/15 03:06:24;;;;;;;5.87;4.27;;;20.10;1.00;;;;;;5118512;28;20448;-69
2021/06/15 03:08:51;;;;;;;3.60;3.30;;;20.10;1.00;;;;;;5118633;28;20452;-69
2021/06/15 03:11:23;;;;;;;4.83;4.43;;;20.10;1.00;;;;;;5118680;28;20449;-69
2021/06/15 03:13:55;;;;;;;4.23;3.63;;;20.10;1.00;;;;;;5118460;28;20432;-69
2021/06/15 03:16:25;;;;;;;5.47;4.33;;;20.10;1.00;;;;;;5120537;28;20778;-69
2021/06/15 03:18:58;;;;;;;5.83;4.47;;;20.10;1.00;;;;;;5120934;28;20443;-69
2021/06/15 03:21:27;;;;;;;6.00;4.40;;;20.10;1.00;;;;;;5118488;28;20447;-69
2021/06/15 03:23:57;;;;;;;4.20;3.80;;;20.20;1.00;;;;;;5118385;28;20559;-69
2021/06/15 03:26:28;;;;;;;12.93;4.50;;;20.20;1.00;;;;;;5118527;28;20452;-69
2021/06/15 03:29:00;;;;;;;4.87;4.37;;;20.20;1.00;;;;;;5118166;28;20452;-69
2021/06/15 03:31:29;;;;;;;5.57;4.70;;;20.20;1.00;;;;;;5118562;28;20445;-69
2021/06/15 03:33:59;;;;;;;6.40;4.40;;;20.10;1.00;;;;;;5118503;28;20552;-69
2021/06/15 03:36:27;;;;;;;4.50;4.10;;;20.20;1.00;;;;;;5118137;28;20452;-69
2021/06/15 03:38:56;;;;;;;4.30;3.90;;;20.20;1.00;;;;;;5117879;28;20452;-69
2021/06/15 03:41:24;;;;;;;5.17;4.20;;;20.20;1.00;;;;;;5118113;28;20452;-69
2021/06/15 03:43:55;;;;;;;4.23;3.83;;;20.20;1.00;;;;;;5117832;28;20480;-69
2021/06/15 03:46:24;;;;;;;8.20;4.70;;;20.20;1.00;;;;;;5117651;28;20491;-69
2021/06/15 03:49:00;;;;;;;5.27;4.33;;;20.20;1.00;;;;;;5117732;28;20447;-69
2021/06/15 03:51:30;;;;;;;7.03;4.40;;;20.20;1.00;;;;;;5117765;27;20825;-69
2021/06/15 03:54:06;;;;;;;4.70;4.20;;;20.30;1.00;;;;;;5117816;28;20453;-68
2021/06/15 03:56:36;;;;;;;4.90;4.20;;;20.30;1.00;;;;;;5117954;28;20476;-69
2021/06/15 03:59:04;;;;;;;6.13;4.63;;;20.30;1.00;;;;;;5117699;28;20547;-68
2021/06/15 04:01:34;;;;;;;5.90;4.80;;;20.30;1.00;;;;;;5117278;28;20463;-68
2021/06/15 04:04:05;;;;;;;6.80;4.77;;;20.30;1.00;;;;;;5117486;28;20521;-70
2021/06/15 04:06:33;;;;;;;6.40;4.13;;;20.30;1.00;;;;;;5117609;28;20437;-69
2021/06/15 04:09:04;;;;;;;5.40;4.10;;;20.30;1.00;;;;;;5118369;28;20452;-68
2021/06/15 04:11:34;;;;;;;5.63;4.17;;;20.30;1.00;;;;;;5117592;28;20437;-68
2021/06/15 04:14:02;;;;;;;7.13;4.77;;;20.40;1.00;;;;;;5117656;28;20449;-68
2021/06/15 04:16:29;;;;;;;8.47;4.67;;;20.30;1.00;;;;;;5117009;28;20463;-68
2021/06/15 04:18:59;;;;;;;6.50;4.10;;;20.40;1.00;;;;;;5117429;28;20784;-68
2021/06/15 04:21:28;;;;;;;7.67;4.73;;;20.40;1.00;;;;;;5117479;28;20770;-68
2021/06/15 04:23:59;;;;;;;8.70;4.53;;;20.40;1.00;;;;;;5116983;28;20506;-68
2021/06/15 04:26:26;;;;;;;5.40;4.80;;;20.50;1.00;;;;;;5117037;28;20452;-67
2021/06/15 04:28:53;;;;;;;7.67;4.57;;;20.50;1.00;;;;;;5117223;28;20456;-68
2021/06/15 04:31:23;;;;;;;5.20;4.40;;;20.60;1.00;;;;;;5116755;28;20449;-68
2021/06/15 04:33:52;;;;;;;5.00;4.50;;;20.60;1.00;;;;;;5117543;28;20448;-68
2021/06/15 04:36:20;;;;;;;6.40;4.17;;;20.70;1.00;;;;;;5116959;28;20464;-68
2021/06/15 04:38:55;;;;;;;6.50;4.13;;;20.70;1.00;;;;;;5116675;28;20491;-68
2021/06/15 04:41:26;;;;;;;6.00;4.43;;;20.70;1.00;;;;;;5116987;28;20450;-69
2021/06/15 04:43:56;;;;;;;5.20;4.40;;;20.70;1.00;;;;;;5116886;28;20484;-69
2021/06/15 04:46:26;;;;;;;5.27;4.77;;;20.70;1.00;;;;;;5116671;28;20491;-69
2021/06/15 04:49:00;;;;;;;6.20;4.60;;;20.70;1.00;;;;;;5116881;28;20441;-69
2021/06/15 04:51:28;;;;;;;5.40;4.60;;;20.70;1.00;;;;;;5116779;28;20532;-69
2021/06/15 04:53:58;;;;;;;5.73;5.03;;;20.70;1.00;;;;;;5117101;28;20452;-69
2021/06/15 04:56:25;;;;;;;8.77;5.70;;;20.70;1.00;;;;;;5116703;28;20544;-69
2021/06/15 04:58:54;;;;;;;6.97;4.67;;;20.70;1.00;;;;;;5116257;28;20471;-69
2021/06/15 05:01:21;;;;;;;5.60;4.87;;;20.70;1.00;;;;;;5116527;28;20464;-69
2021/06/15 05:03:48;;;;;;;8.80;5.70;;;20.70;1.00;;;;;;5116280;28;20491;-69
2021/06/15 05:06:15;;;;;;;5.10;4.57;;;20.80;1.00;;;;;;5116354;28;20796;-69
2021/06/15 05:08:47;;;;;;;9.73;4.40;;;20.80;1.00;;;;;;5116682;28;20456;-69
2021/06/15 05:11:16;;;;;;;7.03;5.27;;;20.90;1.00;;;;;;5116287;28;20448;-69
2021/06/15 05:13:44;;;;;;;6.90;4.67;;;20.90;1.00;;;;;;5119889;28;20459;-70
2021/06/15 05:16:12;;;;;;;5.00;4.30;;;20.90;1.00;;;;;;5119945;28;20463;-69
2021/06/15 05:18:42;;;;;;;4.90;4.27;;;21.00;1.00;;;;;;5119862;28;20456;-69
2021/06/15 05:21:14;;;;;;;8.00;5.03;;;21.00;1.00;;;;;;5121445;28;20464;-69
2021/06/15 05:23:44;;;;;;;5.53;4.70;;;21.10;1.00;;;;;;5121499;28;20460;-70
2021/06/15 05:26:13;;;;;;;5.80;5.20;;;21.20;1.00;;;;;;5121508;28;20461;-70
2021/06/15 05:28:41;;;;;;;6.50;4.80;;;21.30;1.00;;;;;;5120805;28;20485;-70
2021/06/15 05:31:08;;;;;;;5.53;4.53;;;21.30;1.00;;;;;;5121515;28;20452;-70
2021/06/15 05:33:35;;;;;;;5.70;4.77;;;21.50;1.00;;;;;;5120159;28;20449;-70
2021/06/15 05:36:02;;;;;;;6.20;4.77;;;21.50;1.00;;;;;;5119552;28;20456;-70
2021/06/15 05:38:28;;;;;;;6.50;4.87;;;21.60;1.00;;;;;;5121171;28;20765;-70
2021/06/15 05:40:59;;;;;;;8.47;5.10;;;21.70;1.00;;;;;;5120337;28;20444;-71
2021/06/15 05:43:26;;;;;;;5.10;4.20;;;21.70;1.00;;;;;;5118933;28;20502;-70
2021/06/15 05:45:54;;;;;;;5.43;4.50;;;21.70;1.00;;;;;;5119446;28;20783;-70
2021/06/15 05:48:21;;;;;;;6.60;4.90;;;21.70;1.00;;;;;;5119009;28;20441;-71
2021/06/15 05:50:48;;;;;;;5.73;4.30;;;21.70;1.00;;;;;;5119296;28;20548;-70
2021/06/15 05:53:15;;;;;;;5.63;5.03;;;21.70;1.00;;;;;;5118565;28;20467;-70
2021/06/15 05:55:42;;;;;;;6.27;5.23;;;21.70;1.00;;;;;;5118212;28;20537;-70
2021/06/15 05:58:09;;;;;;;5.03;4.37;;;21.70;1.00;;;;;;5117985;28;20504;-70
2021/06/15 06:00:36;;;;;;;11.13;5.20;;;21.70;1.00;;;;;;5117094;28;20495;-70
2021/06/15 06:03:07;;;;;;;7.03;5.23;;;21.70;1.00;;;;;;5117740;28;20968;-70
2021/06/15 06:08:21;;;;;;;10.13;5.40;;;21.80;1.00;;;;;;5118505;28;20572;-71
2021/06/15 06:10:48;;;;;;;6.37;5.60;;;21.90;1.00;;;;;;5117683;28;20481;-73
2021/06/15 06:13:14;;;;;;;6.90;5.37;;;22.00;1.00;;;;;;5117561;28;20457;-69
2021/06/15 06:15:42;;;;;;;8.30;4.87;;;22.10;1.00;;;;;;5117462;28;20478;-68
2021/06/15 06:18:13;;;;;;;10.20;5.30;;;22.30;1.00;;;;;;5117138;28;20471;-69
2021/06/15 06:20:41;;;;;;;6.63;4.93;;;22.40;1.00;;;;;;5116876;28;20460;-69
2021/06/15 06:23:11;;;;;;;8.23;5.20;;;22.50;1.00;;;;;;5116572;28;20476;-70
2021/06/15 06:25:38;;;;;;;8.50;5.40;;;22.50;1.00;;;;;;5117012;28;20488;-69
2021/06/15 06:28:05;;;;;;;8.80;4.83;;;22.70;1.00;;;;;;5116278;28;20630;-69
2021/06/15 06:30:33;;;;;;;7.13;4.77;;;22.70;1.00;;;;;;5116516;28;20456;-69
2021/06/15 06:32:59;;;;;;;6.63;4.57;;;22.90;1.00;;;;;;5116839;28;20459;-69
2021/06/15 06:35:27;;;;;;;5.57;4.83;;;22.90;1.00;;;;;;5116820;28;20452;-69
2021/06/15 06:37:54;;;;;;;6.87;4.60;;;23.10;1.00;;;;;;5116436;28;20456;-69
2021/06/15 06:40:21;;;;;;;4.67;4.20;;;23.20;1.00;;;;;;5116510;28;20456;-69
2021/06/15 06:42:48;;;;;;;13.93;6.90;;;23.30;1.00;;;;;;5116271;28;20458;-69
2021/06/15 06:45:15;;;;;;;8.30;5.27;;;23.50;1.00;;;;;;5116648;28;20463;-69
2021/06/15 06:47:42;;;;;;;12.77;5.30;;;23.60;1.00;;;;;;5115995;28;20476;-69
2021/06/15 06:50:11;;;;;;;5.43;4.87;;;23.70;1.00;;;;;;5116578;28;20883;-70
2021/06/15 06:52:39;;;;;;;7.80;4.33;;;23.70;1.00;;;;;;5117072;28;20464;-69
2021/06/15 06:55:07;;;;;;;10.87;5.07;;;23.80;1.00;;;;;;5117014;28;20460;-70
2021/06/15 06:57:34;;;;;;;6.50;5.90;;;23.80;1.00;;;;;;5117203;28;20453;-70
2021/06/15 07:00:01;;;;;;;7.60;4.40;;;23.90;1.00;;;;;;5116962;28;20471;-69
2021/06/15 07:02:28;;;;;;;6.90;5.00;;;23.90;1.00;;;;;;5116748;28;20452;-69
2021/06/15 07:04:55;;;;;;;9.10;5.40;;;24.00;1.00;;;;;;5116916;28;20499;-70
2021/06/15 07:07:21;;;;;;;8.03;5.03;;;24.10;1.00;;;;;;5116983;28;20452;-69
2021/06/15 07:09:49;;;;;;;8.63;4.83;;;24.30;1.00;;;;;;5116632;28;20452;-71
2021/06/15 07:12:16;;;;;;;5.60;4.37;;;24.40;1.00;;;;;;5116353;28;20453;-70
2021/06/15 07:14:43;;;;;;;7.10;5.43;;;24.50;1.00;;;;;;5116246;28;20530;-70
2021/06/15 07:17:10;;;;;;;7.63;5.00;;;24.50;1.00;;;;;;5116688;28;20466;-70
2021/06/15 07:19:37;;;;;;;7.97;5.20;;;24.60;1.00;;;;;;5117490;28;20467;-70
2021/06/15 07:22:05;;;;;;;5.70;4.77;;;24.60;1.00;;;;;;5116365;28;20460;-70
2021/06/15 07:24:31;;;;;;;5.33;4.63;;;24.70;1.00;;;;;;5118985;28;20841;-71
2021/06/15 07:26:59;;;;;;;4.07;3.67;;;24.70;1.00;;;;;;5119731;28;20452;-69
2021/06/15 07:29:26;;;;;;;5.50;4.90;;;24.70;1.00;;;;;;5120200;28;20548;-70
2021/06/15 07:31:53;;;;;;;10.87;5.87;;;24.70;1.00;;;;;;5119713;28;20460;-69
2021/06/15 07:34:20;;;;;;;7.60;4.70;;;24.70;1.00;;;;;;5119474;28;20452;-69
2021/06/15 07:36:47;;;;;;;7.60;5.73;;;24.60;1.00;;;;;;5119341;28;20448;-69
2021/06/15 07:39:14;;;;;;;5.20;4.37;;;24.50;1.00;;;;;;5120196;28;20482;-69
2021/06/15 07:41:41;;;;;;;9.47;5.47;;;24.50;1.00;;;;;;5120320;28;20747;-69
2021/06/15 07:44:09;;;;;;;8.23;5.00;;;24.40;1.00;;;;;;5119434;28;20794;-70
2021/06/15 07:46:36;;;;;;;9.20;5.03;;;24.40;1.00;;;;;;5119855;28;20491;-70
2021/06/15 07:49:03;;;;;;;5.80;4.73;;;24.30;1.00;;;;;;5120028;28;20452;-69
2021/06/15 07:51:30;;;;;;;8.00;5.40;;;24.30;1.00;;;;;;5120991;28;20939;-69
2021/06/15 07:53:57;;;;;;;4.73;4.30;;;24.40;1.00;;;;;;5120080;28;20456;-69
2021/06/15 07:56:24;;;;;;;6.40;5.03;;;24.40;1.00;;;;;;5119100;28;20456;-69
2021/06/15 07:58:51;;;;;;;5.13;4.57;;;24.50;1.00;;;;;;5119628;28;20463;-69
2021/06/15 08:01:20;;;;;;;7.47;5.23;;;24.60;1.00;;;;;;5120117;28;20456;-68
2021/06/15 08:03:47;;;;;;;6.07;4.70;;;24.70;1.00;;;;;;5119815;28;20480;-71
2021/06/15 08:06:13;;;;;;;6.60;5.03;;;24.80;1.00;;;;;;5119619;28;20460;-70
2021/06/15 08:08:40;;;;;;;5.73;5.13;;;24.90;1.00;;;;;;5119015;28;20462;-69
2021/06/15 08:11:07;;;;;;;6.47;4.07;;;25.00;1.00;;;;;;5118270;28;20893;-70
2021/06/15 08:13:34;;;;;;;5.17;4.53;;;25.00;1.00;;;;;;5118538;28;20757;-69
2021/06/15 08:16:01;;;;;;;5.30;4.80;;;25.00;1.00;;;;;;5118357;28;20469;-69
2021/06/15 08:18:29;;;;;;;6.40;4.40;;;25.00;1.00;;;;;;5118739;28;20457;-69
2021/06/15 08:20:56;;;;;;;6.90;4.30;;;25.00;1.00;;;;;;5118337;28;20483;-70
2021/06/15 08:23:24;;;;;;;7.13;4.70;;;25.00;1.00;;;;;;5118233;28;20468;-68
2021/06/15 08:25:51;;;;;;;5.90;4.53;;;25.00;1.00;;;;;;5117774;28;20449;-69
2021/06/15 08:28:18;;;;;;;5.50;4.93;;;25.00;1.00;;;;;;5120128;28;20787;-70
2021/06/15 08:30:45;;;;;;;7.73;4.93;;;24.90;1.00;;;;;;5119678;28;20463;-70
2021/06/15 08:33:12;;;;;;;7.73;5.80;;;24.90;1.00;;;;;;5119074;28;20452;-70
2021/06/15 08:35:40;;;;;;;6.03;4.57;;;24.90;1.00;;;;;;5118547;28;20497;-70
2021/06/15 08:38:07;;;;;;;5.33;4.83;;;24.90;1.00;;;;;;5118139;28;20448;-70
2021/06/15 08:40:34;;;;;;;7.90;5.10;;;24.90;1.00;;;;;;5117493;28;20816;-69
2021/06/15 08:43:01;;;;;;;6.80;4.77;;;24.90;1.00;;;;;;5117666;28;20467;-69
2021/06/15 08:45:28;;;;;;;7.50;5.73;;;24.90;1.00;;;;;;5117438;28;20814;-70
2021/06/15 08:47:56;;;;;;;6.93;4.60;;;24.90;1.00;;;;;;5116799;28;20487;-69
2021/06/15 08:50:25;;;;;;;6.27;4.23;;;24.90;1.00;;;;;;5116690;27;20452;-68
2021/06/15 08:52:54;;;;;;;8.87;4.83;;;25.00;1.00;;;;;;5117597;28;20452;-69
2021/06/15 08:55:22;;;;;;;7.40;4.20;;;25.00;1.00;;;;;;5116814;28;20460;-69
2021/06/15 08:58:03;;;;;;;5.57;4.10;;;25.00;1.00;;;;;;5116749;28;20917;-68
2021/06/15 09:00:30;;;;;;;4.77;3.70;;;25.00;1.00;;;;;;5116537;28;20444;-68
2021/06/15 09:02:57;;;;;;;5.27;3.60;;;25.10;1.00;;;;;;5116713;28;20468;-69
2021/06/15 09:05:23;;;;;;;13.33;4.87;;;25.10;1.00;;;;;;5116531;28;20476;-69
2021/06/15 09:08:05;;;;;;;5.10;3.63;;;25.30;1.00;;;;;;5116775;28;20786;-70
2021/06/15 09:10:35;;;;;;;5.73;3.93;;;25.40;1.00;;;;;;5116506;28;20440;-69
2021/06/15 09:13:03;;;;;;;4.23;3.83;;;25.50;1.00;;;;;;5116456;28;20441;-69
2021/06/15 09:15:31;;;;;;;5.47;3.53;;;25.60;1.00;;;;;;5116554;28;20460;-69
2021/06/15 09:17:57;;;;;;;4.40;4.00;;;25.70;1.00;;;;;;5116325;28;20525;-69
2021/06/15 09:20:28;;;;;;;3.60;3.40;;;25.80;1.00;;;;;;5116188;28;20457;-69
2021/06/15 09:23:05;;;;;;;9.03;3.93;;;25.80;1.00;;;;;;5116459;28;20455;-69
2021/06/15 09:25:33;;;;;;;4.77;4.30;;;25.90;1.00;;;;;;5116453;28;20464;-69
2021/06/15 09:28:01;;;;;;;4.90;4.00;;;25.90;1.00;;;;;;5116393;28;20467;-69
2021/06/15 09:30:30;;;;;;;4.40;4.00;;;26.00;1.00;;;;;;5116700;28;20788;-69
2021/06/15 09:33:08;;;;;;;3.70;3.40;;;26.10;1.00;;;;;;5116550;28;20539;-68
2021/06/15 09:35:35;;;;;;;4.63;3.60;;;26.20;1.00;;;;;;5116198;28;20444;-70
2021/06/15 09:38:03;;;;;;;4.90;4.03;;;26.20;1.00;;;;;;5115954;28;20453;-68
2021/06/15 09:40:32;;;;;;;4.13;3.83;;;26.20;1.00;;;;;;5116521;28;20457;-69
2021/06/15 09:43:02;;;;;;;4.20;3.70;;;26.20;1.00;;;;;;5116220;28;20467;-69
2021/06/15 09:45:31;;;;;;;4.53;3.83;;;26.20;1.00;;;;;;5115655;28;20480;-69
2021/06/15 09:48:21;;;;;;;7.47;4.00;;;26.20;1.00;;;;;;5115951;28;20491;-70
2021/06/15 09:50:47;;;;;;;4.77;3.87;;;26.30;1.00;;;;;;5116823;28;20543;-69
2021/06/15 09:53:29;;;;;;;6.53;3.70;;;26.40;1.00;;;;;;5120260;28;20460;-70
2021/06/15 09:55:58;;;;;;;4.20;3.90;;;26.40;1.00;;;;;;5118592;28;20437;-69
2021/06/15 09:58:42;;;;;;;7.23;4.23;;;26.40;1.00;;;;;;5115966;28;20456;-69
2021/06/15 10:01:09;;;;;;;5.17;4.20;;;26.40;1.00;;;;;;5116175;28;20468;-69
2021/06/15 10:03:36;;;;;;;6.33;4.23;;;26.30;1.00;;;;;;5115796;28;20468;-70
2021/06/15 10:06:03;;;;;;;5.20;4.70;;;26.30;1.00;;;;;;5116976;28;20518;-70
2021/06/15 10:08:44;;;;;;;7.13;4.67;;;26.20;1.00;;;;;;5116049;28;20467;-69
2021/06/15 10:11:11;;;;;;;7.90;4.77;;;26.20;1.00;;;;;;5116057;28;20445;-70
2021/06/15 10:13:38;;;;;;;6.83;4.90;;;26.20;1.00;;;;;;5117526;28;20453;-70
2021/06/15 10:16:05;;;;;;;5.40;4.67;;;26.10;1.00;;;;;;5115617;28;20459;-69
2021/06/15 10:18:33;;;;;;;5.13;4.63;;;26.10;1.00;;;;;;5116291;28;20480;-68
2021/06/15 10:21:01;;;;;;;4.77;4.03;;;26.10;1.00;;;;;;5115837;28;20461;-69
2021/06/15 10:23:28;;;;;;;6.63;3.90;;;26.10;1.00;;;;;;5115579;28;20476;-70
2021/06/15 10:25:57;;;;;;;4.93;4.53;;;26.10;1.00;;;;;;5115446;28;20494;-69
2021/06/15 10:28:24;;;;;;;9.30;4.87;;;26.10;1.00;;;;;;5115693;28;20829;-69
2021/06/15 10:30:51;;;;;;;5.50;5.00;;;26.10;1.00;;;;;;5116277;28;20487;-69
2021/06/15 10:33:23;;;;;;;5.87;5.27;;;26.10;1.00;;;;;;5115845;28;20788;-69
2021/06/15 10:35:53;;;;;;;6.30;4.80;;;26.00;1.00;;;;;;5115878;28;20447;-69
2021/06/15 10:38:39;;;;;;;6.70;4.67;;;26.00;1.00;;;;;;5116036;28;20456;-69
2021/06/15 10:41:08;;;;;;;5.23;4.70;;;26.00;1.00;;;;;;5115855;28;20441;-69
2021/06/15 10:43:45;;;;;;;5.30;4.90;;;26.00;1.00;;;;;;5116235;28;20463;-70
2021/06/15 10:46:27;;;;;;;5.47;5.00;;;26.00;1.00;;;;;;5115204;28;20939;-70
2021/06/15 10:49:00;;;;;;;5.30;4.80;;;25.90;1.00;;;;;;5115013;28;20493;-70
2021/06/15 10:51:34;;;;;;;6.53;4.57;;;25.90;1.00;;;;;;5120673;28;20451;-67
2021/06/15 10:54:23;;;;;;;4.87;4.47;;;25.90;1.00;;;;;;5129350;28;20456;-67
2021/06/15 10:57:14;;;;;;;4.90;4.50;;;26.00;1.00;;;;;;5128243;28;20764;-67
2021/06/15 11:00:03;;;;;;;6.23;5.63;;;26.10;1.00;;;;;;5132016;28;20489;-66
2021/06/15 11:02:32;;;;;;;5.20;4.60;;;26.30;1.00;;;;;;5130433;28;20444;-67
2021/06/15 11:04:59;;;;;;;4.93;4.43;;;26.40;1.00;;;;;;5130556;28;20483;-66
2021/06/15 11:07:34;;;;;;;5.07;4.50;;;26.50;1.00;;;;;;5132944;28;20467;-67
2021/06/15 11:10:01;;;;;;;5.10;4.60;;;26.50;1.00;;;;;;5132412;28;20440;-66
2021/06/15 11:12:29;;;;;;;7.00;5.10;;;26.50;1.00;;;;;;5132357;28;20466;-67
2021/06/15 11:15:11;;;;;;;5.13;4.63;;;26.40;1.00;;;;;;5133148;28;20541;-66
2021/06/15 11:17:45;;;;;;;6.37;4.03;;;26.40;1.00;;;;;;5132963;28;20452;-66
2021/06/15 11:20:13;;;;;;;5.90;5.30;;;26.20;1.00;;;;;;5132894;28;20457;-66
2021/06/15 11:22:40;;;;;;;6.03;4.93;;;26.10;1.00;;;;;;5132640;28;20938;-67
2021/06/15 11:25:07;;;;;;;6.20;5.57;;;26.00;1.00;;;;;;5132108;28;20536;-66
2021/06/15 11:27:38;;;;;;;6.37;5.70;;;26.00;1.00;;;;;;5132295;28;20448;-67
2021/06/15 11:30:25;;;;;;;9.50;5.30;;;25.80;1.00;;;;;;5133009;28;20476;-66
2021/06/15 11:33:03;;;;;;;5.47;4.93;;;25.70;1.00;;;;;;5132926;28;20547;-67
2021/06/15 11:35:32;;;;;;;5.73;5.00;;;25.60;1.00;;;;;;5132913;28;20433;-67
2021/06/15 11:38:05;;;;;;;7.90;4.83;;;25.60;1.00;;;;;;5132364;28;20451;-66
2021/06/15 11:40:33;;;;;;;6.07;5.17;;;25.60;1.00;;;;;;5127359;28;20448;-72
2021/06/15 11:43:18;;;;;;;9.13;5.47;;;25.60;1.00;;;;;;5118633;28;20463;-74
2021/06/15 11:45:45;;;;;;;5.53;5.03;;;25.50;1.00;;;;;;5118228;28;20580;-73
2021/06/15 11:48:21;;;;;;;6.93;5.90;;;25.30;1.00;;;;;;5117711;28;20488;-73
2021/06/15 11:50:48;;;;;;;10.73;5.37;;;25.30;1.00;;;;;;5117961;28;20502;-72
2021/06/15 11:53:17;;;;;;;5.83;5.20;;;25.30;1.00;;;;;;5117862;28;20456;-72
2021/06/15 11:55:46;;;;;;;5.53;5.03;;;25.30;1.00;;;;;;5117839;28;20457;-72
2021/06/15 11:58:15;;;;;;;6.27;4.77;;;25.40;1.00;;;;;;5118204;28;20462;-73
2021/06/15 12:00:45;;;;;;;6.03;5.43;;;25.50;1.00;;;;;;5117580;28;20483;-72
2021/06/15 12:03:14;;;;;;;11.47;5.43;;;25.60;1.00;;;;;;5117675;28;20456;-73
2021/06/15 12:05:43;;;;;;;5.20;4.53;;;25.80;1.00;;;;;;5117705;28;20491;-73
2021/06/15 12:08:10;;;;;;;7.53;4.97;;;26.00;1.00;;;;;;5118106;28;20801;-72
2021/06/15 12:10:39;;;;;;;7.63;5.70;;;26.20;1.00;;;;;;5116999;28;20920;-73
2021/06/15 12:13:16;;;;;;;9.00;4.63;;;26.60;1.00;;;;;;5117948;28;20449;-73
2021/06/15 12:15:47;;;;;;;5.73;4.77;;;26.80;1.00;;;;;;5117882;28;20433;-72
2021/06/15 12:18:28;;;;;;;6.40;5.00;;;27.10;1.00;;;;;;5118556;28;20451;-72
2021/06/15 12:20:56;;;;;;;8.60;4.50;;;27.40;1.00;;;;;;5117918;28;20536;-72
2021/06/15 12:23:26;;;;;;;4.50;4.10;;;27.70;1.00;;;;;;5117674;28;20544;-73
2021/06/15 12:25:53;;;;;;;5.47;4.57;;;28.00;1.00;;;;;;5117930;28;20499;-72
2021/06/15 12:28:22;;;;;;;4.63;4.23;;;28.20;1.00;;;;;;5117098;28;20920;-72
2021/06/15 12:31:04;;;;;;;5.97;4.97;;;28.20;1.00;;;;;;5117185;28;20465;-74
2021/06/15 12:33:33;;;;;;;5.13;4.63;;;28.30;1.00;;;;;;5117511;28;20440;-72
2021/06/15 12:36:01;;;;;;;5.03;4.53;;;28.30;1.00;;;;;;5118082;28;20449;-73
2021/06/15 12:38:28;;;;;;;9.60;4.50;;;28.30;1.00;;;;;;5117186;28;20452;-73
2021/06/15 12:40:56;;;;;;;7.13;4.90;;;28.30;1.00;;;;;;5116638;28;20924;-72
2021/06/15 12:43:27;;;;;;;5.30;4.60;;;28.30;1.00;;;;;;5117393;28;20785;-72
2021/06/15 12:46:19;;;;;;;6.53;4.90;;;28.40;1.00;;;;;;5117462;28;20465;-72
2021/06/15 12:48:48;;;;;;;7.97;5.10;;;28.50;1.00;;;;;;5117040;28;20436;-72
2021/06/15 12:51:16;;;;;;;10.83;4.57;;;28.60;1.00;;;;;;5116652;28;20460;-72
2021/06/15 12:53:43;;;;;;;4.90;4.50;;;28.70;1.00;;;;;;5119439;28;20475;-72
2021/06/15 12:56:16;;;;;;;4.37;3.60;;;28.70;1.00;;;;;;5116700;28;20517;-73
2021/06/15 12:58:44;;;;;;;5.30;4.07;;;28.80;1.00;;;;;;5116796;28;20456;-72
2021/06/15 13:01:17;;;;;;;5.33;4.13;;;28.90;1.00;;;;;;5116714;28;20499;-73
2021/06/15 13:03:48;;;;;;;4.70;4.17;;;28.90;1.00;;;;;;5116640;28;20452;-72
2021/06/15 13:06:18;;;;;;;4.17;3.77;;;29.20;1.00;;;;;;5116553;28;20464;-72
2021/06/15 13:08:45;;;;;;;4.50;4.10;;;29.60;1.00;;;;;;5116376;28;20478;-74
2021/06/15 13:11:16;;;;;;;4.37;3.97;;;29.80;1.00;;;;;;5116922;28;20457;-72
2021/06/15 13:14:01;;;;;;;5.00;4.53;;;29.70;1.00;;;;;;5116825;28;20535;-72